Time;durP1;ratioP1;P1;durP2;ratioP2;P2;SDS_P1;SDS_P2;PMS_P1;PMS_P2;Temp;Humidity;BMP_temperature;BMP_pressure;BME280_temperature;BME280_humidity;BME280_pressure;Samples;Min_cycle;Max_cycle;Signal;HPM_P1;HPM_P2
2022/03/04 00:01:04;;;;;;;23.98;15.90;;;;;;;1.44;100.00;102314.91;5101163;28;20036;-82
2022/03/04 00:03:33;;;;;;;23.48;15.07;;;;;;;1.42;100.00;102307.00;5064029;28;20040;-83
2022/03/04 00:06:02;;;;;;;22.60;15.05;;;;;;;1.41;100.00;102317.28;5079751;28;20458;-82
2022/03/04 00:08:30;;;;;;;24.23;15.73;;;;;;;1.41;100.00;102309.50;5066455;28;20051;-83
2022/03/04 00:11:00;;;;;;;28.17;16.95;;;;;;;1.40;100.00;102312.88;5066052;28;20094;-83
2022/03/04 00:13:33;;;;;;;27.77;17.35;;;;;;;1.36;100.00;102316.97;5083261;28;20035;-83
2022/03/04 00:16:01;;;;;;;32.33;18.17;;;;;;;1.34;100.00;102316.91;5081985;28;20036;-82
2022/03/04 00:18:30;;;;;;;29.00;18.25;;;;;;;1.33;100.00;102314.22;5058917;28;20052;-82
2022/03/04 00:21:01;;;;;;;25.50;16.70;;;;;;;1.32;100.00;102325.38;5086543;28;20051;-83
2022/03/04 00:23:29;;;;;;;28.30;16.98;;;;;;;1.31;100.00;102318.41;5077782;28;20039;-82
2022/03/04 00:25:58;;;;;;;24.70;16.10;;;;;;;1.30;100.00;102319.19;5075836;28;20058;-83
2022/03/04 00:28:27;;;;;;;26.67;15.82;;;;;;;1.30;100.00;102324.38;5092323;28;20046;-82
2022/03/04 00:30:56;;;;;;;25.10;15.10;;;;;;;1.28;100.00;102323.41;5082368;28;20047;-81
2022/03/04 00:33:25;;;;;;;29.75;16.40;;;;;;;1.27;100.00;102324.22;5078063;28;20043;-80
2022/03/04 00:35:54;;;;;;;24.92;15.90;;;;;;;1.25;100.00;102318.91;5084433;28;20036;-81
2022/03/04 00:38:23;;;;;;;28.50;16.60;;;;;;;1.24;100.00;102326.59;5097711;28;20247;-81
2022/03/04 00:40:51;;;;;;;23.52;15.38;;;;;;;1.22;100.00;102326.50;5069986;28;20040;-83
2022/03/04 00:43:20;;;;;;;26.20;15.00;;;;;;;1.22;100.00;102328.19;5074752;28;20048;-83
2022/03/04 00:45:48;;;;;;;25.95;15.20;;;;;;;1.21;100.00;102332.50;5074371;28;20036;-81
2022/03/04 00:48:17;;;;;;;31.67;15.82;;;;;;;1.21;100.00;102329.91;5064631;28;20052;-82
2022/03/04 00:50:45;;;;;;;28.00;15.80;;;;;;;1.20;100.00;102332.41;5102644;28;20047;-83
2022/03/04 00:53:13;;;;;;;27.15;16.30;;;;;;;1.18;100.00;102334.88;5060150;28;20043;-83
2022/03/04 00:55:42;;;;;;;30.73;16.98;;;;;;;1.17;100.00;102333.06;5040152;28;20048;-83
2022/03/04 00:58:10;;;;;;;31.23;17.65;;;;;;;1.15;100.00;102338.19;5093435;28;20039;-81
2022/03/04 01:00:39;;;;;;;30.55;15.85;;;;;;;1.15;100.00;102338.19;5055425;28;20036;-80
2022/03/04 01:03:07;;;;;;;26.42;15.70;;;;;;;1.15;100.00;102342.47;5084054;28;20257;-83
2022/03/04 01:05:37;;;;;;;28.48;17.02;;;;;;;1.15;100.00;102343.38;5055873;28;20047;-81
2022/03/04 01:08:07;;;;;;;26.70;16.13;;;;;;;1.12;100.00;102345.78;5082248;28;20047;-81
2022/03/04 01:10:36;;;;;;;23.48;15.82;;;;;;;1.11;100.00;102354.34;5081141;28;20052;-80
2022/03/04 01:13:04;;;;;;;29.33;16.52;;;;;;;1.10;100.00;102354.28;5100803;28;20032;-83
2022/03/04 01:15:35;;;;;;;25.60;17.13;;;;;;;1.09;100.00;102358.53;5109842;28;20042;-83
2022/03/04 01:18:04;;;;;;;28.65;15.25;;;;;;;1.07;100.00;102365.34;5078219;28;20044;-83
2022/03/04 01:20:33;;;;;;;27.08;17.05;;;;;;;1.06;100.00;102363.56;5090232;28;20056;-82
2022/03/04 01:23:02;;;;;;;22.77;16.10;;;;;;;1.05;100.00;102356.56;5066634;28;20039;-83
2022/03/04 01:25:32;;;;;;;25.88;15.80;;;;;;;1.02;100.00;102361.56;5080228;28;20044;-82
2022/03/04 01:28:01;;;;;;;21.73;14.77;;;;;;;1.02;100.00;102368.44;5081259;28;20519;-83
2022/03/04 01:30:30;;;;;;;21.67;14.00;;;;;;;1.01;100.00;102361.44;5070855;28;20044;-82
2022/03/04 01:32:58;;;;;;;24.23;15.10;;;;;;;0.99;100.00;102357.84;5068629;28;20523;-82
2022/03/04 01:35:27;;;;;;;26.02;14.70;;;;;;;0.98;100.00;102354.34;5058514;28;20043;-81
2022/03/04 01:37:56;;;;;;;24.38;14.55;;;;;;;0.95;100.00;102354.16;5099194;28;20041;-82
2022/03/04 01:40:24;;;;;;;26.63;16.63;;;;;;;0.92;100.00;102357.44;5103951;27;20066;-82
2022/03/04 01:42:53;;;;;;;24.95;15.15;;;;;;;0.92;100.00;102352.22;5074702;28;20052;-82
2022/03/04 01:45:22;;;;;;;24.75;15.15;;;;;;;0.90;100.00;102356.44;5059498;28;20055;-82
2022/03/04 01:47:51;;;;;;;26.58;16.00;;;;;;;0.88;100.00;102358.03;5084851;28;20054;-82
2022/03/04 01:50:19;;;;;;;25.55;15.77;;;;;;;0.85;100.00;102352.66;5054578;27;20051;-82
2022/03/04 01:52:47;;;;;;;25.38;14.77;;;;;;;0.85;100.00;102362.09;5097346;28;20050;-82
2022/03/04 01:55:16;;;;;;;25.73;15.50;;;;;;;0.82;100.00;102352.44;5095906;28;20536;-82
2022/03/04 01:57:45;;;;;;;28.98;15.50;;;;;;;0.78;100.00;102340.94;5049535;28;20051;-81
2022/03/04 02:00:15;;;;;;;28.08;16.77;;;;;;;0.77;100.00;102338.25;5088377;28;20263;-82
2022/03/04 02:02:45;;;;;;;;;;;;;;;0.74;100.00;102340.66;5048292;23;20056;-78
2022/03/04 02:05:15;;;;;;;26.40;15.57;;;;;;;0.71;100.00;102338.72;4993040;28;20092;-78
2022/03/04 02:07:44;;;;;;;23.35;15.68;;;;;;;0.69;100.00;102342.03;5031589;28;20057;-79
2022/03/04 02:10:13;;;;;;;23.30;15.43;;;;;;;0.66;100.00;102347.94;5004132;28;20060;-79
2022/03/04 02:12:41;;;;;;;29.08;16.08;;;;;;;0.64;100.00;102353.78;5003500;28;20029;-79
2022/03/04 02:15:10;;;;;;;27.65;17.05;;;;;;;0.61;100.00;102357.09;5027537;28;20049;-79
2022/03/04 02:17:38;;;;;;;25.65;17.33;;;;;;;0.60;100.00;102359.56;5032187;28;20045;-78
2022/03/04 02:20:08;;;;;;;29.08;18.45;;;;;;;0.58;100.00;102356.88;4975570;28;20041;-78
2022/03/04 02:22:36;;;;;;;28.77;18.35;;;;;;;0.56;100.00;102354.16;5046482;28;20050;-78
2022/03/04 02:25:05;;;;;;;26.92;17.45;;;;;;;0.54;100.00;102350.56;5026959;28;20038;-79
2022/03/04 02:27:36;;;;;;;28.67;17.65;;;;;;;0.53;100.00;102355.63;4988731;28;20045;-78
2022/03/04 02:30:06;;;;;;;26.98;17.48;;;;;;;0.51;100.00;102355.56;5020040;28;20053;-78
2022/03/04 02:32:35;;;;;;;25.73;17.38;;;;;;;0.49;100.00;102359.75;5012020;28;20037;-78
2022/03/04 02:35:04;;;;;;;26.88;18.17;;;;;;;0.46;100.00;102354.34;5026134;28;20042;-78
2022/03/04 02:37:32;;;;;;;30.70;18.10;;;;;;;0.45;100.00;102356.81;5019937;28;20061;-78
2022/03/04 02:40:01;;;;;;;26.90;17.73;;;;;;;0.41;100.00;102347.94;5020709;28;20507;-78
2022/03/04 02:42:29;;;;;;;23.95;16.88;;;;;;;0.39;100.00;102340.03;4998581;28;20041;-77
2022/03/04 02:44:58;;;;;;;27.30;18.15;;;;;;;0.38;100.00;102343.44;5035813;28;20053;-78
2022/03/04 02:47:27;;;;;;;28.17;17.45;;;;;;;0.37;100.00;102336.44;5019427;28;20041;-78
2022/03/04 02:49:55;;;;;;;27.73;18.90;;;;;;;0.36;100.00;102334.66;5008162;28;20038;-80
2022/03/04 02:52:24;;;;;;;28.73;17.55;;;;;;;0.34;100.00;102331.06;4980265;28;20057;-77
2022/03/04 02:54:53;;;;;;;27.83;18.75;;;;;;;0.32;100.00;102343.03;5010874;28;20049;-79
2022/03/04 02:57:22;;;;;;;31.83;19.70;;;;;;;0.29;100.00;102339.31;4999165;28;20819;-79
2022/03/04 02:59:51;;;;;;;33.97;21.42;;;;;;;0.28;100.00;102346.19;5005716;28;20045;-77
2022/03/04 03:02:21;;;;;;;31.52;20.17;;;;;;;0.28;100.00;102335.81;5004272;28;20286;-79
2022/03/04 03:04:49;;;;;;;31.55;21.02;;;;;;;0.26;100.00;102334.81;4966515;28;20494;-78
2022/03/04 03:07:19;;;;;;;32.35;21.63;;;;;;;0.24;100.00;102344.19;4981817;28;20058;-78
2022/03/04 03:09:49;;;;;;;34.28;20.25;;;;;;;0.23;100.00;102337.22;4990176;28;20076;-79
2022/03/04 03:12:17;;;;;;;29.17;18.33;;;;;;;0.20;100.00;102349.94;5006759;28;20476;-78
2022/03/04 03:14:46;;;;;;;27.48;16.85;;;;;;;0.18;100.00;102349.84;4949450;28;20030;-78
2022/03/04 03:17:15;;;;;;;28.65;18.65;;;;;;;0.14;100.00;102337.47;5007207;28;20270;-78
2022/03/04 03:19:44;;;;;;;27.60;16.75;;;;;;;0.13;100.00;102337.34;5018468;28;20490;-78
2022/03/04 03:22:14;;;;;;;26.05;16.95;;;;;;;0.11;100.00;102325.97;4992962;28;20053;-78
2022/03/04 03:24:43;;;;;;;24.42;15.15;;;;;;;0.08;100.00;102337.03;4956563;28;20057;-79
2022/03/04 03:27:12;;;;;;;27.20;16.88;;;;;;;0.06;100.00;102340.31;5009922;28;20050;-78
2022/03/04 03:29:41;;;;;;;33.20;17.75;;;;;;;0.03;100.00;102342.69;4964889;28;20380;-77
2022/03/04 03:32:11;;;;;;;26.45;16.25;;;;;;;-0.02;100.00;102334.59;5008637;28;20167;-78
2022/03/04 03:34:41;;;;;;;25.08;16.00;;;;;;;-0.05;100.00;102336.97;4995076;28;20499;-78
2022/03/04 03:37:10;;;;;;;28.98;17.05;;;;;;;-0.09;100.00;102335.88;5010116;28;20243;-78
2022/03/04 03:39:39;;;;;;;29.60;16.42;;;;;;;-0.11;100.00;102329.69;5018542;28;20407;-79
2022/03/04 03:42:07;;;;;;;29.05;16.73;;;;;;;-0.14;100.00;102337.22;4973511;28;20041;-78
2022/03/04 03:44:36;;;;;;;28.88;16.55;;;;;;;-0.19;100.00;102330.81;4961552;28;20038;-79
2022/03/04 03:47:05;;;;;;;30.80;18.65;;;;;;;-0.21;100.00;102347.94;4992395;28;20041;-79
2022/03/04 03:49:34;;;;;;;29.20;17.35;;;;;;;-0.25;100.00;102349.41;4995187;28;20496;-77
2022/03/04 03:52:03;;;;;;;27.42;16.70;;;;;;;-0.29;100.00;102352.59;4955820;28;20053;-80
2022/03/04 03:54:32;;;;;;;26.85;17.95;;;;;;;-0.31;100.00;102345.50;4972503;28;20494;-78
2022/03/04 03:57:01;;;;;;;28.08;17.65;;;;;;;-0.35;100.00;102343.50;5022301;28;20049;-79
2022/03/04 03:59:39;;;;;;;30.95;18.38;;;;;;;-0.38;100.00;102343.25;4979190;28;20046;-78
2022/03/04 04:02:07;;;;;;;32.65;18.13;;;;;;;-0.43;100.00;102351.59;4984686;28;20629;-78
2022/03/04 04:04:36;;;;;;;28.67;18.20;;;;;;;-0.43;100.00;102355.91;4994163;28;20406;-78
2022/03/04 04:07:09;;;;;;;31.40;18.65;;;;;;;-0.44;100.00;102354.06;4977162;28;20043;-77
2022/03/04 04:09:38;;;;;;;37.95;20.30;;;;;;;-0.46;100.00;102353.97;4995077;28;20043;-77
2022/03/04 04:12:07;;;;;;;31.77;18.52;;;;;;;-0.50;100.00;102359.72;4985249;28;20053;-78
2022/03/04 04:14:36;;;;;;;31.17;17.58;;;;;;;-0.53;100.00;102356.00;4987467;28;20157;-77
2022/03/04 04:17:05;;;;;;;36.22;19.92;;;;;;;-0.57;100.00;102348.81;4961785;28;20053;-78
2022/03/04 04:19:33;;;;;;;36.50;20.13;;;;;;;-0.57;100.00;102348.81;4978703;28;20042;-78
2022/03/04 04:22:04;;;;;;;34.13;19.48;;;;;;;-0.57;100.00;102346.22;4976123;28;20058;-79
2022/03/04 04:24:33;;;;;;;38.80;21.00;;;;;;;-0.58;100.00;102334.97;4986088;28;20057;-79
2022/03/04 04:27:04;;;;;;;37.13;19.60;;;;;;;-0.57;100.00;102344.53;4959559;28;20053;-78
2022/03/04 04:29:33;;;;;;;35.58;21.25;;;;;;;-0.58;100.00;102352.19;5005080;28;20054;-78
2022/03/04 04:32:02;;;;;;;36.25;20.77;;;;;;;-0.59;100.00;102353.88;4962330;28;20042;-78
2022/03/04 04:34:32;;;;;;;41.55;19.40;;;;;;;-0.58;100.00;102354.78;4989548;28;20065;-78
2022/03/04 04:37:07;;;;;;;33.53;17.70;;;;;;;-0.58;100.00;102367.75;5009392;28;20053;-78
2022/03/04 04:39:35;;;;;;;39.17;19.60;;;;;;;-0.66;100.00;102367.16;4976843;28;20561;-78
2022/03/04 04:42:05;;;;;;;36.53;19.35;;;;;;;-0.69;100.00;102373.03;4988265;28;20406;-77
2022/03/04 04:44:33;;;;;;;36.97;19.38;;;;;;;-0.69;100.00;102366.94;5006444;28;20045;-78
2022/03/04 04:47:02;;;;;;;41.08;21.17;;;;;;;-0.69;100.00;102372.13;4955616;28;20402;-78
2022/03/04 04:49:34;;;;;;;33.78;18.60;;;;;;;-0.71;100.00;102376.28;5023420;28;20152;-78
2022/03/04 04:52:05;;;;;;;34.55;19.48;;;;;;;-0.70;100.00;102383.25;4978020;28;20050;-78
2022/03/04 04:54:35;;;;;;;43.20;20.38;;;;;;;-0.71;100.00;102378.88;5023391;28;20041;-78
2022/03/04 04:57:04;;;;;;;32.03;19.30;;;;;;;-0.71;100.00;102376.28;5009519;28;20098;-78
2022/03/04 04:59:33;;;;;;;35.67;19.45;;;;;;;-0.71;100.00;102384.06;4999678;28;20050;-78
2022/03/04 05:02:02;;;;;;;29.90;17.90;;;;;;;-0.72;100.00;102371.88;4988302;28;20056;-78
2022/03/04 05:04:31;;;;;;;36.65;21.90;;;;;;;-0.72;100.00;102366.72;4975814;28;20254;-78
2022/03/04 05:07:04;;;;;;;38.30;23.00;;;;;;;-0.68;100.00;102368.72;5012121;28;20487;-79
2022/03/04 05:09:33;;;;;;;36.30;21.42;;;;;;;-0.67;100.00;102366.25;4988343;28;20080;-78
2022/03/04 05:12:01;;;;;;;37.08;20.33;;;;;;;-0.69;100.00;102366.94;4989403;28;20045;-78
2022/03/04 05:14:30;;;;;;;30.13;17.13;;;;;;;-0.69;100.00;102362.66;4952072;28;20779;-77
2022/03/04 05:16:59;;;;;;;34.42;20.40;;;;;;;-0.66;100.00;102369.75;5001869;28;20054;-77
2022/03/04 05:19:28;;;;;;;38.28;19.77;;;;;;;-0.66;100.00;102369.75;4968904;28;20050;-79
2022/03/04 05:21:57;;;;;;;34.03;18.65;;;;;;;-0.67;100.00;102367.97;5012494;28;20049;-78
2022/03/04 05:24:28;;;;;;;38.60;21.33;;;;;;;-0.66;100.00;102361.97;4987550;28;20042;-78
2022/03/04 05:26:57;;;;;;;33.42;18.98;;;;;;;-0.67;100.00;102371.44;5020933;28;20030;-78
2022/03/04 05:29:26;;;;;;;27.40;16.98;;;;;;;-0.66;100.00;102377.50;4967185;28;20037;-79
2022/03/04 05:31:54;;;;;;;38.90;21.77;;;;;;;-0.66;100.00;102378.44;4970757;28;20065;-78
2022/03/04 05:34:23;;;;;;;53.47;26.40;;;;;;;-0.64;100.00;102378.56;4961717;28;20053;-78
2022/03/04 05:36:52;;;;;;;59.10;30.13;;;;;;;-0.65;100.00;102384.50;4995007;28;20046;-78
2022/03/04 05:39:20;;;;;;;29.70;17.65;;;;;;;-0.72;100.00;102382.25;5006474;28;20046;-77
2022/03/04 05:41:49;;;;;;;30.05;18.38;;;;;;;-0.72;100.00;102392.59;5007100;28;20419;-79
2022/03/04 05:44:17;;;;;;;29.45;17.45;;;;;;;-0.74;100.00;102395.06;4946916;28;20049;-78
2022/03/04 05:46:49;;;;;;;28.25;16.75;;;;;;;-0.72;100.00;102390.91;5009044;28;20513;-77
2022/03/04 05:49:20;;;;;;;31.63;17.95;;;;;;;-0.69;100.00;102393.72;4968437;28;20050;-78
2022/03/04 05:51:49;;;;;;;30.35;17.83;;;;;;;-0.67;100.00;102394.75;4988719;28;20034;-79
2022/03/04 05:54:17;;;;;;;28.48;17.23;;;;;;;-0.64;100.00;102394.09;5007803;28;20050;-79
2022/03/04 05:56:46;;;;;;;29.35;17.08;;;;;;;-0.64;100.00;102404.44;4971733;28;20048;-78
2022/03/04 05:59:15;;;;;;;33.20;17.85;;;;;;;-0.61;100.00;102407.22;4998663;28;20050;-78
2022/03/04 06:01:44;;;;;;;25.42;16.25;;;;;;;-0.59;100.00;102408.25;5001253;28;20053;-78
2022/03/04 06:04:15;;;;;;;26.75;16.60;;;;;;;-0.56;100.00;102408.47;4983748;28;20524;-78
2022/03/04 06:06:46;;;;;;;30.85;17.17;;;;;;;-0.54;100.00;102406.91;5002248;28;20058;-77
2022/03/04 06:09:16;;;;;;;25.92;15.70;;;;;;;-0.55;100.00;102397.31;5003510;28;20042;-78
2022/03/04 06:11:53;;;;;;;25.08;16.50;;;;;;;-0.55;100.00;102401.59;5021037;28;20046;-77
2022/03/04 06:14:22;;;;;;;28.27;17.17;;;;;;;-0.58;100.00;102419.53;4975272;28;20034;-79
2022/03/04 06:16:50;;;;;;;28.20;17.83;;;;;;;-0.63;100.00;102398.47;5020668;28;20054;-77
2022/03/04 06:19:23;;;;;;;29.10;16.50;;;;;;;-0.66;100.00;102403.41;4952697;28;20038;-79
2022/03/04 06:21:52;;;;;;;25.02;15.65;;;;;;;-0.65;100.00;102400.03;5007930;28;20167;-78
2022/03/04 06:24:20;;;;;;;26.38;15.70;;;;;;;-0.66;100.00;102395.63;4995251;28;20045;-79
2022/03/04 06:26:49;;;;;;;29.48;18.42;;;;;;;-0.63;100.00;102395.88;5002702;28;20042;-78
2022/03/04 06:29:17;;;;;;;32.75;19.92;;;;;;;-0.63;100.00;102393.28;4986953;28;20038;-78
2022/03/04 06:31:48;;;;;;;29.30;18.73;;;;;;;-0.62;100.00;102395.09;4985743;28;20050;-78
2022/03/04 06:34:17;;;;;;;38.75;19.60;;;;;;;-0.66;100.00;102399.16;5005484;28;20049;-78
2022/03/04 06:36:46;;;;;;;45.35;22.88;;;;;;;-0.69;100.00;102396.31;4954350;28;20046;-78
2022/03/04 06:39:15;;;;;;;43.53;22.52;;;;;;;-0.67;100.00;102406.78;4992966;28;20046;-77
2022/03/04 06:41:43;;;;;;;37.50;20.95;;;;;;;-0.66;100.00;102404.31;4969829;28;20050;-78
2022/03/04 06:44:12;;;;;;;27.90;17.30;;;;;;;-0.63;100.00;102408.81;4998858;28;20402;-78
2022/03/04 06:46:40;;;;;;;35.53;20.38;;;;;;;-0.63;100.00;102412.28;4977790;28;20407;-78
2022/03/04 06:49:10;;;;;;;29.23;17.65;;;;;;;-0.61;100.00;102417.59;4974969;28;20513;-77
2022/03/04 06:51:40;;;;;;;30.75;17.90;;;;;;;-0.58;100.00;102417.81;4940607;28;20559;-77
2022/03/04 06:54:09;;;;;;;28.98;17.65;;;;;;;-0.57;100.00;102422.19;5006958;28;20053;-78
2022/03/04 06:56:38;;;;;;;30.88;19.73;;;;;;;-0.54;100.00;102411.19;4970025;28;20038;-78
2022/03/04 06:59:06;;;;;;;38.40;20.33;;;;;;;-0.57;100.00;102406.66;5004245;28;20041;-78
2022/03/04 07:01:35;;;;;;;34.88;20.40;;;;;;;-0.58;100.00;102422.13;4989798;28;20054;-78
2022/03/04 07:04:04;;;;;;;39.70;23.27;;;;;;;-0.56;100.00;102417.94;4982641;28;20048;-80
2022/03/04 07:06:33;;;;;;;42.35;22.67;;;;;;;-0.54;100.00;102414.66;5002038;28;20688;-78
2022/03/04 07:09:01;;;;;;;32.92;19.33;;;;;;;-0.50;100.00;102420.97;4998358;28;20050;-77
2022/03/04 07:11:30;;;;;;;31.13;17.67;;;;;;;-0.47;100.00;102424.69;5010704;28;20503;-81
2022/03/04 07:13:59;;;;;;;32.22;18.27;;;;;;;-0.47;100.00;102427.28;5010373;28;20042;-76
2022/03/04 07:16:28;;;;;;;23.58;14.45;;;;;;;-0.53;100.00;102426.84;4972337;28;20226;-83
2022/03/04 07:18:57;;;;;;;27.75;17.05;;;;;;;-0.52;100.00;102423.44;4981055;28;20402;-77
2022/03/04 07:21:25;;;;;;;27.02;16.00;;;;;;;-0.50;100.00;102420.97;5001818;28;20549;-80
2022/03/04 07:23:59;;;;;;;26.60;15.27;;;;;;;-0.47;100.00;102423.81;4988236;28;20049;-83
2022/03/04 07:26:27;;;;;;;28.38;16.33;;;;;;;-0.44;100.00;102417.13;5005630;28;20053;-82
2022/03/04 07:28:59;;;;;;;24.15;15.15;;;;;;;-0.41;100.00;102419.06;5005225;28;20034;-81
2022/03/04 07:31:27;;;;;;;25.52;15.32;;;;;;;-0.36;100.00;102433.22;5013311;28;20302;-84
2022/03/04 07:33:56;;;;;;;25.48;15.63;;;;;;;-0.34;100.00;102428.16;4995467;28;20061;-82
2022/03/04 07:36:26;;;;;;;22.20;14.80;;;;;;;-0.36;100.00;102430.63;4980951;28;20525;-82
2022/03/04 07:38:57;;;;;;;20.90;13.63;;;;;;;-0.34;100.00;102433.34;4996414;28;20519;-84
2022/03/04 07:41:26;;;;;;;25.98;14.70;;;;;;;-0.37;100.00;102433.16;5016040;28;20046;-82
2022/03/04 07:43:54;;;;;;;26.08;15.63;;;;;;;-0.37;100.00;102427.97;5024698;28;20053;-79
2022/03/04 07:46:23;;;;;;;21.77;14.05;;;;;;;-0.38;100.00;102434.81;4975584;28;20054;-81
2022/03/04 07:48:53;;;;;;;27.25;14.90;;;;;;;-0.37;100.00;102423.66;4970995;28;20053;-80
2022/03/04 07:51:22;;;;;;;26.77;16.02;;;;;;;-0.31;100.00;102418.03;4973192;28;20068;-80
2022/03/04 07:53:51;;;;;;;29.50;18.00;;;;;;;-0.21;100.00;102430.84;4997057;28;20533;-80
2022/03/04 07:56:20;;;;;;;28.98;17.85;;;;;;;-0.20;100.00;102435.25;4935666;28;20568;-82
2022/03/04 07:58:48;;;;;;;33.60;18.83;;;;;;;-0.18;100.00;102436.28;5028860;28;20030;-81
2022/03/04 08:01:17;;;;;;;35.28;19.90;;;;;;;-0.19;100.00;102450.00;5009403;28;20045;-84
2022/03/04 08:03:49;;;;;;;33.55;19.13;;;;;;;-0.17;100.00;102431.97;5015345;28;20056;-82
2022/03/04 08:06:18;;;;;;;48.25;26.50;;;;;;;-0.13;100.00;102429.75;4963887;28;20057;-81
2022/03/04 08:08:47;;;;;;;42.35;24.20;;;;;;;-0.06;100.00;102429.38;5009180;28;20057;-82
2022/03/04 08:11:18;;;;;;;42.30;23.38;;;;;;;0.04;100.00;102430.03;4951424;28;20377;-82
2022/03/04 08:13:47;;;;;;;41.78;24.27;;;;;;;0.13;100.00;102434.19;5002435;28;20046;-82
2022/03/04 08:16:15;;;;;;;39.15;23.80;;;;;;;0.26;100.00;102433.34;4995721;28;20046;-82
2022/03/04 08:18:45;;;;;;;50.65;27.25;;;;;;;0.43;100.00;102429.34;4992114;28;20022;-81
2022/03/04 08:21:13;;;;;;;43.35;25.42;;;;;;;0.71;100.00;102431.25;4989242;28;20041;-82
2022/03/04 08:23:42;;;;;;;40.47;23.80;;;;;;;0.98;100.00;102434.81;4972581;28;20483;-80
2022/03/04 08:26:11;;;;;;;48.47;25.92;;;;;;;1.24;100.00;102433.97;4986351;28;20057;-81
2022/03/04 08:28:39;;;;;;;31.80;20.55;;;;;;;1.53;100.00;102435.91;5026162;28;20034;-82
2022/03/04 08:31:11;;;;;;;35.78;20.77;;;;;;;1.88;100.00;102436.38;4984322;28;20045;-82
2022/03/04 08:33:44;;;;;;;28.13;19.92;;;;;;;2.24;100.00;102439.50;4969337;28;20050;-82
2022/03/04 08:36:18;;;;;;;24.60;17.35;;;;;;;2.47;100.00;102447.03;4976076;28;20042;-83
2022/03/04 08:38:47;;;;;;;25.70;16.73;;;;;;;2.60;100.00;102445.19;5004662;28;20054;-84
2022/03/04 08:41:19;;;;;;;26.15;17.20;;;;;;;2.75;100.00;102445.22;4999233;28;20398;-83
2022/03/04 08:43:50;;;;;;;27.48;15.82;;;;;;;2.84;100.00;102449.28;5015275;28;20037;-84
2022/03/04 08:46:19;;;;;;;19.52;14.63;;;;;;;2.99;100.00;102458.84;5004909;28;20039;-83
2022/03/04 08:48:48;;;;;;;22.48;17.02;;;;;;;3.07;100.00;102455.84;4970518;28;20054;-83
2022/03/04 08:51:17;;;;;;;26.20;15.65;;;;;;;3.19;100.00;102449.56;4971476;28;20034;-83
2022/03/04 08:53:45;;;;;;;22.27;16.45;;;;;;;3.24;100.00;102456.84;4990266;28;20049;-82
2022/03/04 08:56:14;;;;;;;20.33;15.68;;;;;;;3.40;100.00;102448.22;5010561;28;20046;-83
2022/03/04 08:58:43;;;;;;;22.17;16.95;;;;;;;3.57;100.00;102457.00;4985429;28;20043;-83
2022/03/04 09:01:12;;;;;;;25.48;17.00;;;;;;;3.78;100.00;102451.22;5010737;28;20034;-82
2022/03/04 09:03:41;;;;;;;21.65;15.82;;;;;;;3.95;100.00;102455.69;4985786;28;20054;-82
2022/03/04 09:06:09;;;;;;;20.02;15.60;;;;;;;4.17;100.00;102446.44;5034906;28;20045;-82
2022/03/04 09:08:38;;;;;;;19.23;13.70;;;;;;;4.35;100.00;102454.34;5003356;28;20065;-84
2022/03/04 09:11:07;;;;;;;20.77;15.88;;;;;;;4.48;100.00;102454.25;4993673;28;20034;-81
2022/03/04 09:13:36;;;;;;;18.95;14.63;;;;;;;4.60;100.00;102456.59;5012413;28;20030;-81
2022/03/04 09:16:04;;;;;;;25.77;13.82;;;;;;;4.61;100.00;102459.31;5006792;28;20058;-83
2022/03/04 09:18:34;;;;;;;18.38;13.63;;;;;;;4.64;100.00;102453.34;5015528;28;20065;-82
2022/03/04 09:21:08;;;;;;;18.50;12.55;;;;;;;4.73;100.00;102450.31;4992035;28;20045;-82
2022/03/04 09:23:36;;;;;;;19.63;13.85;;;;;;;4.77;100.00;102457.50;5005719;28;20069;-82
2022/03/04 09:26:05;;;;;;;16.13;12.77;;;;;;;4.78;100.00;102454.06;5007327;28;20057;-83
2022/03/04 09:28:33;;;;;;;15.48;13.00;;;;;;;4.89;100.00;102460.72;4965674;28;20038;-82
2022/03/04 09:31:09;;;;;;;15.20;12.82;;;;;;;4.86;100.00;102461.47;4968969;28;20054;-83
2022/03/04 09:33:37;;;;;;;17.05;12.25;;;;;;;4.86;100.00;102460.59;4976959;28;20246;-82
2022/03/04 09:36:11;;;;;;;14.73;11.48;;;;;;;4.79;100.00;102448.91;4977810;28;20050;-83
2022/03/04 09:38:41;;;;;;;17.38;12.30;;;;;;;4.60;100.00;102454.88;4974160;28;20042;-83
2022/03/04 09:41:10;;;;;;;17.88;12.07;;;;;;;4.46;100.00;102450.63;4995636;28;20023;-83
2022/03/04 09:43:57;;;;;;;21.67;11.50;;;;;;;4.30;100.00;102446.28;5007021;28;20060;-82
2022/03/04 09:46:27;;;;;;;16.90;11.88;;;;;;;4.17;100.00;102454.28;4992102;28;20053;-82
2022/03/04 09:48:59;;;;;;;17.42;12.85;;;;;;;4.00;100.00;102455.94;5017881;28;20155;-82
2022/03/04 09:51:28;;;;;;;16.40;12.10;;;;;;;3.89;100.00;102450.13;4998482;28;20037;-83
2022/03/04 09:53:56;;;;;;;17.98;13.30;;;;;;;3.90;100.00;102457.16;4984531;28;20037;-81
2022/03/04 09:56:25;;;;;;;16.13;11.52;;;;;;;3.91;100.00;102461.53;4956335;28;20064;-82
2022/03/04 09:58:53;;;;;;;16.92;12.43;;;;;;;3.89;100.00;102456.25;4988758;28;20061;-82
2022/03/04 10:01:23;;;;;;;14.48;11.15;;;;;;;3.95;100.00;102458.31;4980839;28;20034;-82
2022/03/04 10:03:54;;;;;;;19.30;12.85;;;;;;;3.98;100.00;102453.25;5008258;28;20053;-81
2022/03/04 10:06:27;;;;;;;18.52;11.30;;;;;;;3.89;100.00;102455.34;5024577;28;20049;-83
2022/03/04 10:08:55;;;;;;;14.85;11.50;;;;;;;3.94;100.00;102459.09;5006560;28;20041;-82
2022/03/04 10:11:30;;;;;;;14.00;10.13;;;;;;;4.00;100.00;102466.38;5021788;28;20042;-82
2022/03/04 10:14:02;;;;;;;13.10;11.07;;;;;;;4.03;100.00;102466.56;4995562;28;20034;-81
2022/03/04 10:16:36;;;;;;;15.63;11.40;;;;;;;4.09;100.00;102459.97;4996300;28;20065;-81
2022/03/04 10:19:09;;;;;;;12.18;10.57;;;;;;;4.12;100.00;102461.84;4991497;28;20362;-82
2022/03/04 10:21:49;;;;;;;16.00;11.13;;;;;;;4.22;100.00;102464.16;5012456;28;20041;-81
2022/03/04 10:24:26;;;;;;;15.93;10.63;;;;;;;4.29;100.00;102455.84;5010021;28;20042;-83
2022/03/04 10:27:13;;;;;;;14.48;11.57;;;;;;;4.41;100.00;102449.50;5001561;28;20034;-81
2022/03/04 10:29:45;;;;;;;15.35;11.07;;;;;;;4.51;100.00;102456.09;4988378;28;20530;-83
2022/03/04 10:32:15;;;;;;;15.32;11.32;;;;;;;4.59;100.00;102455.69;5012772;28;20049;-79
2022/03/04 10:35:09;;;;;;;16.40;10.82;;;;;;;4.67;100.00;102462.22;5003340;28;20607;-81
2022/03/04 10:37:48;;;;;;;15.10;10.95;;;;;;;4.69;100.00;102463.22;5008539;28;20045;-82
2022/03/04 10:40:21;;;;;;;14.25;10.77;;;;;;;4.66;100.00;102470.88;5011981;28;20038;-80
2022/03/04 10:42:54;;;;;;;12.98;10.18;;;;;;;4.60;100.00;102462.72;4979079;28;20022;-80
2022/03/04 10:45:27;;;;;;;15.68;11.63;;;;;;;4.62;100.00;102450.63;5014137;28;20033;-81
2022/03/04 10:48:02;;;;;;;14.65;10.93;;;;;;;4.66;100.00;102460.41;4991291;28;20061;-83
2022/03/04 10:50:36;;;;;;;13.50;10.18;;;;;;;4.76;100.00;102456.56;5005118;28;20049;-81
2022/03/04 10:53:07;;;;;;;15.82;11.30;;;;;;;4.81;100.00;102455.09;5005068;28;20497;-81
2022/03/04 10:55:45;;;;;;;17.23;12.05;;;;;;;4.85;100.00;102453.56;4997860;28;20079;-81
2022/03/04 10:58:30;;;;;;;15.68;11.57;;;;;;;4.95;100.00;102447.97;5001104;28;20034;-81
2022/03/04 11:01:05;;;;;;;19.05;11.90;;;;;;;5.06;100.00;102454.66;4989234;28;20046;-82
2022/03/04 11:03:35;;;;;;;17.85;11.00;;;;;;;5.17;100.00;102451.72;4994039;28;20402;-83
2022/03/04 11:06:09;;;;;;;13.90;10.70;;;;;;;5.15;100.00;102451.63;5012305;28;20060;-80
2022/03/04 11:08:38;;;;;;;14.95;10.23;;;;;;;5.15;100.00;102451.63;4990962;28;20061;-82
2022/03/04 11:11:10;;;;;;;16.20;10.82;;;;;;;5.18;100.00;102451.81;4977237;28;20546;-81
2022/03/04 11:13:39;;;;;;;16.20;11.13;;;;;;;5.24;100.00;102444.25;4968105;28;20278;-82
2022/03/04 11:16:11;;;;;;;23.77;11.50;;;;;;;5.31;100.00;102449.78;4989508;28;20054;-83
2022/03/04 11:18:41;;;;;;;15.18;10.18;;;;;;;5.37;100.00;102445.78;4998928;28;20052;-81